Terminal Aerodrome Forecast
Issued by NWS Binghamton, NY

Home | Current Version | Previous Version | Text Only | Print | Product List | Glossary On
Versions: 1 2 3 4 5 6 7 8 9 10 11 12 13 14 15 16 17 18 19 20
000
FTUS41 KBGM 232300
TAFSYR
TAF
KSYR 232328Z 2400/2424 12007KT P6SM OVC080
     FM240200 13013KT P6SM OVC100 WS015/18045KT
     FM240600 16012KT P6SM OVC035 WS020/17050KT
      TEMPO 2408/2412 -SHRA OVC025
     FM241200 18014KT P6SM SCT025 OVC035 WS020/19045KT
     FM241600 19016KT P6SM BKN035 WS020/20040KT=

USA.gov is the U.S. government's official web portal to all federal, state and local government web resources and services.